<?xml version="1.0" encoding="UTF-8" standalone="no" ?>
<gpx xmlns="http://www.topografix.com/GPX/1/1" xmlns:xsi="http://www.w3.org/2001/XMLSchema-instance" xsi:schemaLocation="http://www.topografix.com/GPX/1/1 http://www.topografix.com/GPX/1/1/gpx.xsd" version="1.1" creator="VisuGPX - https://www.visugpx.com">
  <metadata>
    <name>Mont Saint-Clair et Pierres Blanches par les petits chemins</name>
  </metadata>
  <wpt lat="43.40216" lon="3.68566">
    <ele>173</ele>
    <name><![CDATA[Mont Saint-Clair]]></name>
    <type><![CDATA[sommet]]></type>
  </wpt>
  <wpt lat="43.40599" lon="3.67269">
    <ele>67</ele>
    <name><![CDATA[Entrée forêt des Pierres Blanches]]></name>
    <type><![CDATA[patrimoine_vegetal]]></type>
  </wpt>
  <wpt lat="43.40364" lon="3.66875">
    <ele>121.6</ele>
    <name><![CDATA[Table d'orientation]]></name>
    <type><![CDATA[vue]]></type>
  </wpt>
  <wpt lat="43.39395" lon="3.66671">
    <ele>2.2</ele>
    <name><![CDATA[Escalier antenne relais]]></name>
  </wpt>
  <trk>
    <name><![CDATA[Mont Saint-Clair et Pierres Blanches par les petits chemins]]></name>
    <extensions>
      <line xmlns="http://www.topografix.com/GPX/gpx_style/0/2">
        <color>0000FF</color>
        <width>4</width>
      </line>
    </extensions>
    <trkseg>
      <trkpt lat="43.3924" lon="3.69055">
        <ele>9</ele>
        <time>2022-09-03T09:07:11+02:00</time>
      </trkpt>
      <trkpt lat="43.39239" lon="3.69053">
        <ele>9</ele>
        <time>2022-09-03T09:11:31+02:00</time>
      </trkpt>
      <trkpt lat="43.39237" lon="3.69021">
        <ele>8</ele>
        <time>2022-09-03T09:11:52+02:00</time>
      </trkpt>
      <trkpt lat="43.39255" lon="3.69002">
        <ele>13</ele>
        <time>2022-09-03T09:12:23+02:00</time>
      </trkpt>
      <trkpt lat="43.39259" lon="3.68981">
        <ele>13</ele>
        <time>2022-09-03T09:12:47+02:00</time>
      </trkpt>
      <trkpt lat="43.39295" lon="3.68966">
        <ele>18</ele>
        <time>2022-09-03T09:13:09+02:00</time>
      </trkpt>
      <trkpt lat="43.39306" lon="3.69019">
        <ele>17</ele>
        <time>2022-09-03T09:13:37+02:00</time>
      </trkpt>
      <trkpt lat="43.39314" lon="3.69044">
        <ele>18</ele>
        <time>2022-09-03T09:13:57+02:00</time>
      </trkpt>
      <trkpt lat="43.39328" lon="3.69077">
        <ele>18</ele>
        <time>2022-09-03T09:14:16+02:00</time>
      </trkpt>
      <trkpt lat="43.3932" lon="3.69063">
        <ele>18</ele>
        <time>2022-09-03T09:14:38+02:00</time>
      </trkpt>
      <trkpt lat="43.39339" lon="3.69108">
        <ele>18</ele>
        <time>2022-09-03T09:15:00+02:00</time>
      </trkpt>
      <trkpt lat="43.39351" lon="3.69126">
        <ele>19</ele>
        <time>2022-09-03T09:15:21+02:00</time>
      </trkpt>
      <trkpt lat="43.39367" lon="3.69104">
        <ele>22</ele>
        <time>2022-09-03T09:15:45+02:00</time>
      </trkpt>
      <trkpt lat="43.39392" lon="3.69056">
        <ele>31</ele>
        <time>2022-09-03T09:16:14+02:00</time>
      </trkpt>
      <trkpt lat="43.39411" lon="3.69018">
        <ele>36</ele>
        <time>2022-09-03T09:16:38+02:00</time>
      </trkpt>
      <trkpt lat="43.39427" lon="3.69018">
        <ele>40</ele>
      </trkpt>
      <trkpt lat="43.39428" lon="3.69043">
        <ele>41</ele>
        <time>2022-09-03T09:17:49+02:00</time>
      </trkpt>
      <trkpt lat="43.39413" lon="3.69061">
        <ele>35</ele>
      </trkpt>
      <trkpt lat="43.39418" lon="3.69084">
        <ele>34</ele>
        <time>2022-09-03T09:18:18+02:00</time>
      </trkpt>
      <trkpt lat="43.3943" lon="3.6911">
        <ele>34</ele>
        <time>2022-09-03T09:18:38+02:00</time>
      </trkpt>
      <trkpt lat="43.39444" lon="3.69135">
        <ele>35</ele>
        <time>2022-09-03T09:19:00+02:00</time>
      </trkpt>
      <trkpt lat="43.39459" lon="3.69158">
        <ele>36</ele>
        <time>2022-09-03T09:19:16+02:00</time>
      </trkpt>
      <trkpt lat="43.39459" lon="3.69149">
        <ele>37</ele>
      </trkpt>
      <trkpt lat="43.39449" lon="3.6913">
        <ele>37</ele>
        <time>2022-09-03T09:20:27+02:00</time>
      </trkpt>
      <trkpt lat="43.39438" lon="3.69105">
        <ele>38</ele>
        <time>2022-09-03T09:21:25+02:00</time>
      </trkpt>
      <trkpt lat="43.39461" lon="3.69071">
        <ele>48</ele>
        <time>2022-09-03T09:23:01+02:00</time>
      </trkpt>
      <trkpt lat="43.3949" lon="3.691">
        <ele>47</ele>
        <time>2022-09-03T09:24:00+02:00</time>
      </trkpt>
      <trkpt lat="43.39509" lon="3.69073">
        <ele>54</ele>
        <time>2022-09-03T09:24:32+02:00</time>
      </trkpt>
      <trkpt lat="43.39533" lon="3.69102">
        <ele>51</ele>
        <time>2022-09-03T09:24:53+02:00</time>
      </trkpt>
      <trkpt lat="43.3956" lon="3.69131">
        <ele>50</ele>
        <time>2022-09-03T09:25:16+02:00</time>
      </trkpt>
      <trkpt lat="43.39569" lon="3.69145">
        <ele>50</ele>
        <time>2022-09-03T09:25:36+02:00</time>
      </trkpt>
      <trkpt lat="43.39581" lon="3.69144">
        <ele>52</ele>
        <time>2022-09-03T09:28:35+02:00</time>
      </trkpt>
      <trkpt lat="43.39591" lon="3.69118">
        <ele>58</ele>
      </trkpt>
      <trkpt lat="43.39603" lon="3.69117">
        <ele>61</ele>
        <time>2022-09-03T09:30:48+02:00</time>
      </trkpt>
      <trkpt lat="43.39592" lon="3.69081">
        <ele>63</ele>
        <time>2022-09-03T09:31:19+02:00</time>
      </trkpt>
      <trkpt lat="43.39581" lon="3.69053">
        <ele>64</ele>
        <time>2022-09-03T09:31:40+02:00</time>
      </trkpt>
      <trkpt lat="43.39577" lon="3.69022">
        <ele>67</ele>
        <time>2022-09-03T09:32:03+02:00</time>
      </trkpt>
      <trkpt lat="43.39582" lon="3.68991">
        <ele>73</ele>
        <time>2022-09-03T09:32:47+02:00</time>
      </trkpt>
      <trkpt lat="43.39598" lon="3.68975">
        <ele>77</ele>
      </trkpt>
      <trkpt lat="43.39611" lon="3.68942">
        <ele>83</ele>
        <time>2022-09-03T09:33:54+02:00</time>
      </trkpt>
      <trkpt lat="43.3962" lon="3.68911">
        <ele>86</ele>
        <time>2022-09-03T09:34:18+02:00</time>
      </trkpt>
      <trkpt lat="43.39624" lon="3.68884">
        <ele>87</ele>
        <time>2022-09-03T09:34:45+02:00</time>
      </trkpt>
      <trkpt lat="43.39629" lon="3.6885">
        <ele>87</ele>
        <time>2022-09-03T09:35:05+02:00</time>
      </trkpt>
      <trkpt lat="43.39638" lon="3.68821">
        <ele>86</ele>
        <time>2022-09-03T09:35:28+02:00</time>
      </trkpt>
      <trkpt lat="43.39653" lon="3.68797">
        <ele>87</ele>
        <time>2022-09-03T09:35:49+02:00</time>
      </trkpt>
      <trkpt lat="43.39666" lon="3.68771">
        <ele>83</ele>
        <time>2022-09-03T09:37:16+02:00</time>
      </trkpt>
      <trkpt lat="43.39683" lon="3.68755">
        <ele>82</ele>
        <time>2022-09-03T09:38:18+02:00</time>
      </trkpt>
      <trkpt lat="43.39687" lon="3.68755">
        <ele>82</ele>
        <time>2022-09-03T09:39:19+02:00</time>
      </trkpt>
      <trkpt lat="43.39713" lon="3.68708">
        <ele>75</ele>
        <time>2022-09-03T09:41:03+02:00</time>
      </trkpt>
      <trkpt lat="43.39726" lon="3.68683">
        <ele>73</ele>
        <time>2022-09-03T09:41:31+02:00</time>
      </trkpt>
      <trkpt lat="43.39733" lon="3.68653">
        <ele>69</ele>
        <time>2022-09-03T09:41:59+02:00</time>
      </trkpt>
      <trkpt lat="43.39739" lon="3.68626">
        <ele>64</ele>
        <time>2022-09-03T09:42:27+02:00</time>
      </trkpt>
      <trkpt lat="43.39743" lon="3.68591">
        <ele>59</ele>
      </trkpt>
      <trkpt lat="43.39728" lon="3.68572">
        <ele>57</ele>
        <time>2022-09-03T09:43:19+02:00</time>
      </trkpt>
      <trkpt lat="43.39696" lon="3.68548">
        <ele>53</ele>
        <time>2022-09-03T09:43:44+02:00</time>
      </trkpt>
      <trkpt lat="43.39707" lon="3.68526">
        <ele>58</ele>
        <time>2022-09-03T09:44:21+02:00</time>
      </trkpt>
      <trkpt lat="43.39731" lon="3.68477">
        <ele>71</ele>
        <time>2022-09-03T09:44:54+02:00</time>
      </trkpt>
      <trkpt lat="43.3973" lon="3.68474">
        <ele>71</ele>
        <time>2022-09-03T09:45:26+02:00</time>
      </trkpt>
      <trkpt lat="43.39746" lon="3.68452">
        <ele>79</ele>
        <time>2022-09-03T09:46:06+02:00</time>
      </trkpt>
      <trkpt lat="43.39756" lon="3.68422">
        <ele>85</ele>
        <time>2022-09-03T09:46:37+02:00</time>
      </trkpt>
      <trkpt lat="43.39766" lon="3.68394">
        <ele>90</ele>
        <time>2022-09-03T09:47:15+02:00</time>
      </trkpt>
      <trkpt lat="43.39784" lon="3.68375">
        <ele>97</ele>
        <time>2022-09-03T09:47:55+02:00</time>
      </trkpt>
      <trkpt lat="43.39788" lon="3.68344">
        <ele>101</ele>
        <time>2022-09-03T09:49:36+02:00</time>
      </trkpt>
      <trkpt lat="43.39799" lon="3.683">
        <ele>103</ele>
        <time>2022-09-03T09:52:33+02:00</time>
      </trkpt>
      <trkpt lat="43.39819" lon="3.68298">
        <ele>108</ele>
      </trkpt>
      <trkpt lat="43.39841" lon="3.68311">
        <ele>114</ele>
        <time>2022-09-03T09:53:07+02:00</time>
      </trkpt>
      <trkpt lat="43.39859" lon="3.68315">
        <ele>119</ele>
        <time>2022-09-03T09:54:30+02:00</time>
      </trkpt>
      <trkpt lat="43.3987" lon="3.68284">
        <ele>119</ele>
        <time>2022-09-03T09:55:03+02:00</time>
      </trkpt>
      <trkpt lat="43.39934" lon="3.68318">
        <ele>134</ele>
        <time>2022-09-03T09:55:43+02:00</time>
      </trkpt>
      <trkpt lat="43.39932" lon="3.68363">
        <ele>136</ele>
        <time>2022-09-03T09:56:21+02:00</time>
      </trkpt>
      <trkpt lat="43.3993" lon="3.68364">
        <ele>136</ele>
        <time>2022-09-03T09:56:51+02:00</time>
      </trkpt>
      <trkpt lat="43.39934" lon="3.68396">
        <ele>139</ele>
        <time>2022-09-03T09:57:24+02:00</time>
      </trkpt>
      <trkpt lat="43.39944" lon="3.68426">
        <ele>142</ele>
        <time>2022-09-03T09:57:45+02:00</time>
      </trkpt>
      <trkpt lat="43.39956" lon="3.68452">
        <ele>142</ele>
        <time>2022-09-03T09:58:04+02:00</time>
      </trkpt>
      <trkpt lat="43.39972" lon="3.68473">
        <ele>144</ele>
        <time>2022-09-03T09:58:49+02:00</time>
      </trkpt>
      <trkpt lat="43.39992" lon="3.68493">
        <ele>146</ele>
        <time>2022-09-03T09:59:17+02:00</time>
      </trkpt>
      <trkpt lat="43.4" lon="3.68552">
        <ele>142</ele>
        <time>2022-09-03T09:59:45+02:00</time>
      </trkpt>
      <trkpt lat="43.39999" lon="3.68558">
        <ele>141</ele>
        <time>2022-09-03T10:00:19+02:00</time>
      </trkpt>
      <trkpt lat="43.4" lon="3.6862">
        <ele>143</ele>
        <time>2022-09-03T10:01:02+02:00</time>
      </trkpt>
      <trkpt lat="43.39998" lon="3.68652">
        <ele>144</ele>
        <time>2022-09-03T10:01:24+02:00</time>
      </trkpt>
      <trkpt lat="43.39995" lon="3.68719">
        <ele>145</ele>
        <time>2022-09-03T10:01:48+02:00</time>
      </trkpt>
      <trkpt lat="43.40023" lon="3.68679">
        <ele>150</ele>
        <time>2022-09-03T10:02:22+02:00</time>
      </trkpt>
      <trkpt lat="43.40032" lon="3.68709">
        <ele>150</ele>
        <time>2022-09-03T10:02:56+02:00</time>
      </trkpt>
      <trkpt lat="43.40044" lon="3.68736">
        <ele>148</ele>
        <time>2022-09-03T10:03:24+02:00</time>
      </trkpt>
      <trkpt lat="43.40067" lon="3.68789">
        <ele>136</ele>
        <time>2022-09-03T10:05:30+02:00</time>
      </trkpt>
      <trkpt lat="43.4008" lon="3.68816">
        <ele>126</ele>
        <time>2022-09-03T10:06:29+02:00</time>
      </trkpt>
      <trkpt lat="43.40093" lon="3.68843">
        <ele>114</ele>
        <time>2022-09-03T10:07:16+02:00</time>
      </trkpt>
      <trkpt lat="43.40103" lon="3.68871">
        <ele>105</ele>
        <time>2022-09-03T10:07:56+02:00</time>
      </trkpt>
      <trkpt lat="43.40115" lon="3.68898">
        <ele>96</ele>
        <time>2022-09-03T10:09:31+02:00</time>
      </trkpt>
      <trkpt lat="43.40141" lon="3.68965">
        <ele>71</ele>
        <time>2022-09-03T10:11:21+02:00</time>
      </trkpt>
      <trkpt lat="43.40131" lon="3.68985">
        <ele>68</ele>
        <time>2022-09-03T10:12:08+02:00</time>
      </trkpt>
      <trkpt lat="43.40129" lon="3.69016">
        <ele>61</ele>
        <time>2022-09-03T10:12:41+02:00</time>
      </trkpt>
      <trkpt lat="43.40123" lon="3.69047">
        <ele>57</ele>
        <time>2022-09-03T10:13:06+02:00</time>
      </trkpt>
      <trkpt lat="43.40121" lon="3.69079">
        <ele>52</ele>
        <time>2022-09-03T10:13:36+02:00</time>
      </trkpt>
      <trkpt lat="43.40118" lon="3.6911">
        <ele>48</ele>
        <time>2022-09-03T10:14:00+02:00</time>
      </trkpt>
      <trkpt lat="43.40111" lon="3.6914">
        <ele>45</ele>
        <time>2022-09-03T10:14:24+02:00</time>
      </trkpt>
      <trkpt lat="43.40104" lon="3.69169">
        <ele>41</ele>
        <time>2022-09-03T10:14:47+02:00</time>
      </trkpt>
      <trkpt lat="43.40096" lon="3.69199">
        <ele>39</ele>
        <time>2022-09-03T10:15:09+02:00</time>
      </trkpt>
      <trkpt lat="43.40091" lon="3.69231">
        <ele>36</ele>
        <time>2022-09-03T10:15:32+02:00</time>
      </trkpt>
      <trkpt lat="43.40085" lon="3.69262">
        <ele>34</ele>
        <time>2022-09-03T10:15:54+02:00</time>
      </trkpt>
      <trkpt lat="43.40086" lon="3.69293">
        <ele>32</ele>
        <time>2022-09-03T10:16:58+02:00</time>
      </trkpt>
      <trkpt lat="43.40089" lon="3.69323">
        <ele>29</ele>
        <time>2022-09-03T10:17:56+02:00</time>
      </trkpt>
      <trkpt lat="43.40111" lon="3.69318">
        <ele>28</ele>
        <time>2022-09-03T10:18:24+02:00</time>
      </trkpt>
      <trkpt lat="43.40143" lon="3.69299">
        <ele>27</ele>
        <time>2022-09-03T10:18:44+02:00</time>
      </trkpt>
      <trkpt lat="43.40145" lon="3.69282">
        <ele>29</ele>
        <time>2022-09-03T10:20:17+02:00</time>
      </trkpt>
      <trkpt lat="43.40163" lon="3.69263">
        <ele>31</ele>
        <time>2022-09-03T10:21:19+02:00</time>
      </trkpt>
      <trkpt lat="43.4017" lon="3.69234">
        <ele>34</ele>
        <time>2022-09-03T10:21:50+02:00</time>
      </trkpt>
      <trkpt lat="43.4018" lon="3.69206">
        <ele>37</ele>
        <time>2022-09-03T10:22:16+02:00</time>
      </trkpt>
      <trkpt lat="43.40189" lon="3.69156">
        <ele>44</ele>
        <time>2022-09-03T10:22:42+02:00</time>
      </trkpt>
      <trkpt lat="43.40202" lon="3.69124">
        <ele>50</ele>
        <time>2022-09-03T10:23:12+02:00</time>
      </trkpt>
      <trkpt lat="43.40224" lon="3.69121">
        <ele>53</ele>
      </trkpt>
      <trkpt lat="43.40234" lon="3.69107">
        <ele>55</ele>
        <time>2022-09-03T10:24:24+02:00</time>
      </trkpt>
      <trkpt lat="43.40256" lon="3.69053">
        <ele>65</ele>
        <time>2022-09-03T10:24:50+02:00</time>
      </trkpt>
      <trkpt lat="43.40264" lon="3.6902">
        <ele>69</ele>
        <time>2022-09-03T10:26:24+02:00</time>
      </trkpt>
      <trkpt lat="43.40268" lon="3.69002">
        <ele>70</ele>
        <time>2022-09-03T10:26:55+02:00</time>
      </trkpt>
      <trkpt lat="43.40263" lon="3.68972">
        <ele>76</ele>
        <time>2022-09-03T10:27:22+02:00</time>
      </trkpt>
      <trkpt lat="43.40265" lon="3.68934">
        <ele>82</ele>
        <time>2022-09-03T10:27:53+02:00</time>
      </trkpt>
      <trkpt lat="43.40275" lon="3.68911">
        <ele>85</ele>
        <time>2022-09-03T10:28:22+02:00</time>
      </trkpt>
      <trkpt lat="43.40277" lon="3.68867">
        <ele>93</ele>
        <time>2022-09-03T10:28:53+02:00</time>
      </trkpt>
      <trkpt lat="43.40285" lon="3.68849">
        <ele>95</ele>
        <time>2022-09-03T10:29:29+02:00</time>
      </trkpt>
      <trkpt lat="43.40293" lon="3.68814">
        <ele>101</ele>
        <time>2022-09-03T10:30:04+02:00</time>
      </trkpt>
      <trkpt lat="43.40301" lon="3.688">
        <ele>103</ele>
        <time>2022-09-03T10:36:51+02:00</time>
      </trkpt>
      <trkpt lat="43.40295" lon="3.68765">
        <ele>111</ele>
        <time>2022-09-03T10:37:34+02:00</time>
      </trkpt>
      <trkpt lat="43.40285" lon="3.68739">
        <ele>116</ele>
        <time>2022-09-03T10:38:09+02:00</time>
      </trkpt>
      <trkpt lat="43.40272" lon="3.68709">
        <ele>123</ele>
        <time>2022-09-03T10:38:59+02:00</time>
      </trkpt>
      <trkpt lat="43.40258" lon="3.68683">
        <ele>131</ele>
        <time>2022-09-03T10:39:53+02:00</time>
      </trkpt>
      <trkpt lat="43.40259" lon="3.68661">
        <ele>134</ele>
        <time>2022-09-03T10:40:32+02:00</time>
      </trkpt>
      <trkpt lat="43.40265" lon="3.6862">
        <ele>140</ele>
        <time>2022-09-03T10:41:18+02:00</time>
      </trkpt>
      <trkpt lat="43.40263" lon="3.68587">
        <ele>147</ele>
        <time>2022-09-03T10:42:06+02:00</time>
      </trkpt>
      <trkpt lat="43.40262" lon="3.68558">
        <ele>154</ele>
        <time>2022-09-03T10:42:56+02:00</time>
      </trkpt>
      <trkpt lat="43.40256" lon="3.68525">
        <ele>162</ele>
        <time>2022-09-03T10:43:37+02:00</time>
      </trkpt>
      <trkpt lat="43.40242" lon="3.68514">
        <ele>169</ele>
        <time>2022-09-03T10:45:38+02:00</time>
      </trkpt>
      <trkpt lat="43.40229" lon="3.6854">
        <ele>169</ele>
        <time>2022-09-03T10:46:12+02:00</time>
      </trkpt>
      <trkpt lat="43.40216" lon="3.68566">
        <ele>169</ele>
      </trkpt>
      <trkpt lat="43.40205" lon="3.68576">
        <ele>169</ele>
        <time>2022-09-03T11:02:06+02:00</time>
      </trkpt>
      <trkpt lat="43.402" lon="3.68532">
        <ele>174</ele>
      </trkpt>
      <trkpt lat="43.40223" lon="3.68496">
        <ele>175</ele>
        <time>2022-09-03T11:02:27+02:00</time>
      </trkpt>
      <trkpt lat="43.40238" lon="3.68477">
        <ele>174</ele>
        <time>2022-09-03T11:02:51+02:00</time>
      </trkpt>
      <trkpt lat="43.40252" lon="3.68488">
        <ele>171</ele>
        <time>2022-09-03T11:06:27+02:00</time>
      </trkpt>
      <trkpt lat="43.40264" lon="3.68475">
        <ele>170</ele>
        <time>2022-09-03T11:06:59+02:00</time>
      </trkpt>
      <trkpt lat="43.4027" lon="3.68461">
        <ele>170</ele>
        <time>2022-09-03T11:07:19+02:00</time>
      </trkpt>
      <trkpt lat="43.40281" lon="3.68438">
        <ele>171</ele>
        <time>2022-09-03T11:07:38+02:00</time>
      </trkpt>
      <trkpt lat="43.40298" lon="3.68411">
        <ele>167</ele>
        <time>2022-09-03T11:07:59+02:00</time>
      </trkpt>
      <trkpt lat="43.40308" lon="3.68374">
        <ele>164</ele>
        <time>2022-09-03T11:08:20+02:00</time>
      </trkpt>
      <trkpt lat="43.40328" lon="3.68373">
        <ele>158</ele>
        <time>2022-09-03T11:09:05+02:00</time>
      </trkpt>
      <trkpt lat="43.40355" lon="3.68369">
        <ele>150</ele>
        <time>2022-09-03T11:09:36+02:00</time>
      </trkpt>
      <trkpt lat="43.40374" lon="3.68374">
        <ele>143</ele>
        <time>2022-09-03T11:10:05+02:00</time>
      </trkpt>
      <trkpt lat="43.40396" lon="3.68381">
        <ele>135</ele>
        <time>2022-09-03T11:11:02+02:00</time>
      </trkpt>
      <trkpt lat="43.40409" lon="3.68408">
        <ele>129</ele>
        <time>2022-09-03T11:11:34+02:00</time>
      </trkpt>
      <trkpt lat="43.40422" lon="3.68434">
        <ele>121</ele>
        <time>2022-09-03T11:12:07+02:00</time>
      </trkpt>
      <trkpt lat="43.40433" lon="3.68461">
        <ele>114</ele>
        <time>2022-09-03T11:12:51+02:00</time>
      </trkpt>
      <trkpt lat="43.40445" lon="3.68488">
        <ele>109</ele>
        <time>2022-09-03T11:13:19+02:00</time>
      </trkpt>
      <trkpt lat="43.40455" lon="3.68517">
        <ele>105</ele>
        <time>2022-09-03T11:13:59+02:00</time>
      </trkpt>
      <trkpt lat="43.40468" lon="3.68542">
        <ele>101</ele>
        <time>2022-09-03T11:14:38+02:00</time>
      </trkpt>
      <trkpt lat="43.40489" lon="3.68528">
        <ele>94</ele>
        <time>2022-09-03T11:15:08+02:00</time>
      </trkpt>
      <trkpt lat="43.40515" lon="3.68536">
        <ele>87</ele>
        <time>2022-09-03T11:15:46+02:00</time>
      </trkpt>
      <trkpt lat="43.40538" lon="3.68538">
        <ele>81</ele>
        <time>2022-09-03T11:16:45+02:00</time>
      </trkpt>
      <trkpt lat="43.40559" lon="3.68528">
        <ele>75</ele>
        <time>2022-09-03T11:17:14+02:00</time>
      </trkpt>
      <trkpt lat="43.40578" lon="3.68515">
        <ele>71</ele>
        <time>2022-09-03T11:17:45+02:00</time>
      </trkpt>
      <trkpt lat="43.40568" lon="3.68476">
        <ele>70</ele>
        <time>2022-09-03T11:18:07+02:00</time>
      </trkpt>
      <trkpt lat="43.40566" lon="3.68452">
        <ele>69</ele>
        <time>2022-09-03T11:18:29+02:00</time>
      </trkpt>
      <trkpt lat="43.40563" lon="3.6842">
        <ele>70</ele>
        <time>2022-09-03T11:18:49+02:00</time>
      </trkpt>
      <trkpt lat="43.40559" lon="3.6838">
        <ele>72</ele>
        <time>2022-09-03T11:19:15+02:00</time>
      </trkpt>
      <trkpt lat="43.40566" lon="3.68346">
        <ele>73</ele>
        <time>2022-09-03T11:19:34+02:00</time>
      </trkpt>
      <trkpt lat="43.40567" lon="3.68309">
        <ele>76</ele>
        <time>2022-09-03T11:19:59+02:00</time>
      </trkpt>
      <trkpt lat="43.40562" lon="3.68304">
        <ele>78</ele>
        <time>2022-09-03T11:20:31+02:00</time>
      </trkpt>
      <trkpt lat="43.40539" lon="3.68306">
        <ele>84</ele>
        <time>2022-09-03T11:21:14+02:00</time>
      </trkpt>
      <trkpt lat="43.4051" lon="3.68316">
        <ele>94</ele>
        <time>2022-09-03T11:22:13+02:00</time>
      </trkpt>
      <trkpt lat="43.40501" lon="3.68262">
        <ele>96</ele>
        <time>2022-09-03T11:22:51+02:00</time>
      </trkpt>
      <trkpt lat="43.40494" lon="3.68174">
        <ele>95</ele>
        <time>2022-09-03T11:23:36+02:00</time>
      </trkpt>
      <trkpt lat="43.40497" lon="3.68171">
        <ele>94</ele>
        <time>2022-09-03T11:23:55+02:00</time>
      </trkpt>
      <trkpt lat="43.40502" lon="3.68139">
        <ele>94</ele>
        <time>2022-09-03T11:24:18+02:00</time>
      </trkpt>
      <trkpt lat="43.40507" lon="3.68108">
        <ele>95</ele>
        <time>2022-09-03T11:24:44+02:00</time>
      </trkpt>
      <trkpt lat="43.40511" lon="3.68074">
        <ele>96</ele>
        <time>2022-09-03T11:25:05+02:00</time>
      </trkpt>
      <trkpt lat="43.40516" lon="3.68047">
        <ele>96</ele>
        <time>2022-09-03T11:25:33+02:00</time>
      </trkpt>
      <trkpt lat="43.40549" lon="3.6805">
        <ele>87</ele>
        <time>2022-09-03T11:26:09+02:00</time>
      </trkpt>
      <trkpt lat="43.40572" lon="3.68051">
        <ele>81</ele>
        <time>2022-09-03T11:26:47+02:00</time>
      </trkpt>
      <trkpt lat="43.40595" lon="3.68054">
        <ele>75</ele>
        <time>2022-09-03T11:27:14+02:00</time>
      </trkpt>
      <trkpt lat="43.40618" lon="3.68056">
        <ele>69</ele>
        <time>2022-09-03T11:27:52+02:00</time>
      </trkpt>
      <trkpt lat="43.40664" lon="3.6806">
        <ele>56</ele>
        <time>2022-09-03T11:28:20+02:00</time>
      </trkpt>
      <trkpt lat="43.40663" lon="3.68064">
        <ele>56</ele>
        <time>2022-09-03T11:28:50+02:00</time>
      </trkpt>
      <trkpt lat="43.40709" lon="3.68059">
        <ele>46</ele>
        <time>2022-09-03T11:29:21+02:00</time>
      </trkpt>
      <trkpt lat="43.40713" lon="3.68034">
        <ele>46</ele>
        <time>2022-09-03T11:30:14+02:00</time>
      </trkpt>
      <trkpt lat="43.40712" lon="3.68003">
        <ele>47</ele>
        <time>2022-09-03T11:30:33+02:00</time>
      </trkpt>
      <trkpt lat="43.40708" lon="3.67969">
        <ele>49</ele>
        <time>2022-09-03T11:31:01+02:00</time>
      </trkpt>
      <trkpt lat="43.40697" lon="3.67942">
        <ele>54</ele>
        <time>2022-09-03T11:31:20+02:00</time>
      </trkpt>
      <trkpt lat="43.40674" lon="3.67911">
        <ele>59</ele>
        <time>2022-09-03T11:31:43+02:00</time>
      </trkpt>
      <trkpt lat="43.40675" lon="3.67877">
        <ele>57</ele>
        <time>2022-09-03T11:32:21+02:00</time>
      </trkpt>
      <trkpt lat="43.40672" lon="3.67857">
        <ele>56</ele>
        <time>2022-09-03T11:32:39+02:00</time>
      </trkpt>
      <trkpt lat="43.4066" lon="3.6783">
        <ele>58</ele>
        <time>2022-09-03T11:33:00+02:00</time>
      </trkpt>
      <trkpt lat="43.40655" lon="3.67798">
        <ele>59</ele>
        <time>2022-09-03T11:33:21+02:00</time>
      </trkpt>
      <trkpt lat="43.40662" lon="3.67766">
        <ele>57</ele>
        <time>2022-09-03T11:33:46+02:00</time>
      </trkpt>
      <trkpt lat="43.40653" lon="3.67737">
        <ele>59</ele>
        <time>2022-09-03T11:34:06+02:00</time>
      </trkpt>
      <trkpt lat="43.40643" lon="3.67709">
        <ele>61</ele>
        <time>2022-09-03T11:34:28+02:00</time>
      </trkpt>
      <trkpt lat="43.40635" lon="3.67679">
        <ele>62</ele>
        <time>2022-09-03T11:34:49+02:00</time>
      </trkpt>
      <trkpt lat="43.40627" lon="3.6765">
        <ele>64</ele>
        <time>2022-09-03T11:35:14+02:00</time>
      </trkpt>
      <trkpt lat="43.40624" lon="3.67619">
        <ele>67</ele>
        <time>2022-09-03T11:35:40+02:00</time>
      </trkpt>
      <trkpt lat="43.4064" lon="3.67587">
        <ele>67</ele>
        <time>2022-09-03T11:36:04+02:00</time>
      </trkpt>
      <trkpt lat="43.40652" lon="3.67558">
        <ele>66</ele>
        <time>2022-09-03T11:36:26+02:00</time>
      </trkpt>
      <trkpt lat="43.40663" lon="3.67535">
        <ele>63</ele>
        <time>2022-09-03T11:36:48+02:00</time>
      </trkpt>
      <trkpt lat="43.40653" lon="3.67499">
        <ele>66</ele>
        <time>2022-09-03T11:37:11+02:00</time>
      </trkpt>
      <trkpt lat="43.40651" lon="3.67473">
        <ele>67</ele>
        <time>2022-09-03T11:37:30+02:00</time>
      </trkpt>
      <trkpt lat="43.40645" lon="3.67444">
        <ele>67</ele>
        <time>2022-09-03T11:37:51+02:00</time>
      </trkpt>
      <trkpt lat="43.40638" lon="3.67411">
        <ele>68</ele>
        <time>2022-09-03T11:38:20+02:00</time>
      </trkpt>
      <trkpt lat="43.40636" lon="3.67383">
        <ele>67</ele>
        <time>2022-09-03T11:38:43+02:00</time>
      </trkpt>
      <trkpt lat="43.40629" lon="3.67352">
        <ele>67</ele>
        <time>2022-09-03T11:39:04+02:00</time>
      </trkpt>
      <trkpt lat="43.40621" lon="3.67323">
        <ele>67</ele>
        <time>2022-09-03T11:39:27+02:00</time>
      </trkpt>
      <trkpt lat="43.40611" lon="3.67295">
        <ele>66</ele>
        <time>2022-09-03T11:39:47+02:00</time>
      </trkpt>
      <trkpt lat="43.40599" lon="3.67269">
        <ele>67</ele>
        <time>2022-09-03T11:40:17+02:00</time>
      </trkpt>
      <trkpt lat="43.4059" lon="3.6724">
        <ele>67</ele>
        <time>2022-09-03T11:40:51+02:00</time>
      </trkpt>
      <trkpt lat="43.40583" lon="3.6721">
        <ele>67</ele>
        <time>2022-09-03T11:41:14+02:00</time>
      </trkpt>
      <trkpt lat="43.40575" lon="3.67181">
        <ele>68</ele>
        <time>2022-09-03T11:41:34+02:00</time>
      </trkpt>
      <trkpt lat="43.40571" lon="3.67148">
        <ele>67</ele>
        <time>2022-09-03T11:42:02+02:00</time>
      </trkpt>
      <trkpt lat="43.40564" lon="3.67118">
        <ele>67</ele>
        <time>2022-09-03T11:42:20+02:00</time>
      </trkpt>
      <trkpt lat="43.40561" lon="3.67087">
        <ele>66</ele>
        <time>2022-09-03T11:42:50+02:00</time>
      </trkpt>
      <trkpt lat="43.40556" lon="3.67056">
        <ele>67</ele>
        <time>2022-09-03T11:43:47+02:00</time>
      </trkpt>
      <trkpt lat="43.4055" lon="3.67026">
        <ele>68</ele>
        <time>2022-09-03T11:44:10+02:00</time>
      </trkpt>
      <trkpt lat="43.40542" lon="3.66996">
        <ele>69</ele>
        <time>2022-09-03T11:44:37+02:00</time>
      </trkpt>
      <trkpt lat="43.40537" lon="3.66966">
        <ele>70</ele>
        <time>2022-09-03T11:45:00+02:00</time>
      </trkpt>
      <trkpt lat="43.40531" lon="3.66934">
        <ele>71</ele>
        <time>2022-09-03T11:45:26+02:00</time>
      </trkpt>
      <trkpt lat="43.4053" lon="3.66903">
        <ele>70</ele>
        <time>2022-09-03T11:45:49+02:00</time>
      </trkpt>
      <trkpt lat="43.40532" lon="3.66871">
        <ele>70</ele>
        <time>2022-09-03T11:46:15+02:00</time>
      </trkpt>
      <trkpt lat="43.40535" lon="3.66839">
        <ele>68</ele>
        <time>2022-09-03T11:46:38+02:00</time>
      </trkpt>
      <trkpt lat="43.40531" lon="3.66807">
        <ele>69</ele>
        <time>2022-09-03T11:46:58+02:00</time>
      </trkpt>
      <trkpt lat="43.40526" lon="3.66776">
        <ele>70</ele>
        <time>2022-09-03T11:47:21+02:00</time>
      </trkpt>
      <trkpt lat="43.40523" lon="3.66745">
        <ele>67</ele>
        <time>2022-09-03T11:47:39+02:00</time>
      </trkpt>
      <trkpt lat="43.40519" lon="3.66713">
        <ele>64</ele>
        <time>2022-09-03T11:47:57+02:00</time>
      </trkpt>
      <trkpt lat="43.40508" lon="3.66687">
        <ele>63</ele>
        <time>2022-09-03T11:48:16+02:00</time>
      </trkpt>
      <trkpt lat="43.40493" lon="3.66662">
        <ele>64</ele>
        <time>2022-09-03T11:48:38+02:00</time>
      </trkpt>
      <trkpt lat="43.40466" lon="3.66651">
        <ele>70</ele>
        <time>2022-09-03T11:49:07+02:00</time>
      </trkpt>
      <trkpt lat="43.40427" lon="3.66625">
        <ele>79</ele>
        <time>2022-09-03T11:49:35+02:00</time>
      </trkpt>
      <trkpt lat="43.40408" lon="3.66612">
        <ele>82</ele>
        <time>2022-09-03T11:50:10+02:00</time>
      </trkpt>
      <trkpt lat="43.40397" lon="3.66607">
        <ele>85</ele>
        <time>2022-09-03T11:50:39+02:00</time>
      </trkpt>
      <trkpt lat="43.40375" lon="3.66593">
        <ele>88</ele>
        <time>2022-09-03T11:51:10+02:00</time>
      </trkpt>
      <trkpt lat="43.40369" lon="3.66587">
        <ele>89</ele>
        <time>2022-09-03T11:51:34+02:00</time>
      </trkpt>
      <trkpt lat="43.40348" lon="3.66575">
        <ele>90</ele>
        <time>2022-09-03T11:52:09+02:00</time>
      </trkpt>
      <trkpt lat="43.40325" lon="3.66575">
        <ele>94</ele>
        <time>2022-09-03T11:52:36+02:00</time>
      </trkpt>
      <trkpt lat="43.40286" lon="3.66598">
        <ele>100</ele>
        <time>2022-09-03T11:53:02+02:00</time>
      </trkpt>
      <trkpt lat="43.40271" lon="3.66636">
        <ele>104</ele>
        <time>2022-09-03T11:53:26+02:00</time>
      </trkpt>
      <trkpt lat="43.40301" lon="3.66622">
        <ele>104</ele>
      </trkpt>
      <trkpt lat="43.40312" lon="3.66624">
        <ele>105</ele>
        <time>2022-09-03T11:54:17+02:00</time>
      </trkpt>
      <trkpt lat="43.40334" lon="3.66636">
        <ele>106</ele>
        <time>2022-09-03T11:54:41+02:00</time>
      </trkpt>
      <trkpt lat="43.40353" lon="3.66656">
        <ele>107</ele>
        <time>2022-09-03T11:55:11+02:00</time>
      </trkpt>
      <trkpt lat="43.40364" lon="3.66683">
        <ele>109</ele>
        <time>2022-09-03T11:55:47+02:00</time>
      </trkpt>
      <trkpt lat="43.40378" lon="3.66709">
        <ele>110</ele>
        <time>2022-09-03T11:56:06+02:00</time>
      </trkpt>
      <trkpt lat="43.40391" lon="3.66734">
        <ele>111</ele>
        <time>2022-09-03T11:56:27+02:00</time>
      </trkpt>
      <trkpt lat="43.40415" lon="3.66775">
        <ele>113</ele>
        <time>2022-09-03T11:56:49+02:00</time>
      </trkpt>
      <trkpt lat="43.40408" lon="3.6679">
        <ele>116</ele>
        <time>2022-09-03T11:57:22+02:00</time>
      </trkpt>
      <trkpt lat="43.40394" lon="3.66816">
        <ele>120</ele>
        <time>2022-09-03T11:57:53+02:00</time>
      </trkpt>
      <trkpt lat="43.40384" lon="3.66844">
        <ele>120</ele>
        <time>2022-09-03T11:58:14+02:00</time>
      </trkpt>
      <trkpt lat="43.40364" lon="3.66875">
        <ele>122</ele>
        <time>2022-09-03T11:58:36+02:00</time>
      </trkpt>
      <trkpt lat="43.40366" lon="3.66906">
        <ele>122</ele>
        <time>2022-09-03T12:03:08+02:00</time>
      </trkpt>
      <trkpt lat="43.40369" lon="3.67001">
        <ele>122</ele>
        <time>2022-09-03T12:03:47+02:00</time>
      </trkpt>
      <trkpt lat="43.40338" lon="3.6696">
        <ele>120</ele>
        <time>2022-09-03T12:43:43+02:00</time>
      </trkpt>
      <trkpt lat="43.40322" lon="3.66927">
        <ele>118</ele>
        <time>2022-09-03T12:44:26+02:00</time>
      </trkpt>
      <trkpt lat="43.4031" lon="3.66895">
        <ele>117</ele>
        <time>2022-09-03T12:44:47+02:00</time>
      </trkpt>
      <trkpt lat="43.40294" lon="3.66874">
        <ele>114</ele>
        <time>2022-09-03T12:45:09+02:00</time>
      </trkpt>
      <trkpt lat="43.40282" lon="3.66847">
        <ele>113</ele>
        <time>2022-09-03T12:45:35+02:00</time>
      </trkpt>
      <trkpt lat="43.40269" lon="3.66821">
        <ele>110</ele>
        <time>2022-09-03T12:45:56+02:00</time>
      </trkpt>
      <trkpt lat="43.40248" lon="3.66808">
        <ele>108</ele>
        <time>2022-09-03T12:46:44+02:00</time>
      </trkpt>
      <trkpt lat="43.40231" lon="3.66789">
        <ele>106</ele>
        <time>2022-09-03T12:47:09+02:00</time>
      </trkpt>
      <trkpt lat="43.40216" lon="3.66765">
        <ele>104</ele>
        <time>2022-09-03T12:47:37+02:00</time>
      </trkpt>
      <trkpt lat="43.40202" lon="3.66738">
        <ele>102</ele>
        <time>2022-09-03T12:48:14+02:00</time>
      </trkpt>
      <trkpt lat="43.40194" lon="3.66716">
        <ele>100</ele>
        <time>2022-09-03T12:49:19+02:00</time>
      </trkpt>
      <trkpt lat="43.40218" lon="3.66694">
        <ele>101</ele>
        <time>2022-09-03T12:49:40+02:00</time>
      </trkpt>
      <trkpt lat="43.40196" lon="3.6668">
        <ele>98</ele>
        <time>2022-09-03T12:50:43+02:00</time>
      </trkpt>
      <trkpt lat="43.40174" lon="3.66675">
        <ele>92</ele>
        <time>2022-09-03T12:51:17+02:00</time>
      </trkpt>
      <trkpt lat="43.40157" lon="3.66654">
        <ele>86</ele>
        <time>2022-09-03T12:52:19+02:00</time>
      </trkpt>
      <trkpt lat="43.40137" lon="3.66639">
        <ele>82</ele>
        <time>2022-09-03T12:53:34+02:00</time>
      </trkpt>
      <trkpt lat="43.40118" lon="3.66621">
        <ele>78</ele>
        <time>2022-09-03T12:54:03+02:00</time>
      </trkpt>
      <trkpt lat="43.40098" lon="3.66611">
        <ele>75</ele>
        <time>2022-09-03T12:55:01+02:00</time>
      </trkpt>
      <trkpt lat="43.4008" lon="3.66587">
        <ele>72</ele>
        <time>2022-09-03T12:56:56+02:00</time>
      </trkpt>
      <trkpt lat="43.40075" lon="3.66556">
        <ele>69</ele>
        <time>2022-09-03T12:57:27+02:00</time>
      </trkpt>
      <trkpt lat="43.40078" lon="3.66525">
        <ele>65</ele>
        <time>2022-09-03T12:58:03+02:00</time>
      </trkpt>
      <trkpt lat="43.40074" lon="3.66494">
        <ele>59</ele>
        <time>2022-09-03T12:58:49+02:00</time>
      </trkpt>
      <trkpt lat="43.40056" lon="3.66475">
        <ele>53</ele>
        <time>2022-09-03T12:59:29+02:00</time>
      </trkpt>
      <trkpt lat="43.40042" lon="3.66451">
        <ele>46</ele>
        <time>2022-09-03T13:00:14+02:00</time>
      </trkpt>
      <trkpt lat="43.40031" lon="3.66434">
        <ele>42</ele>
        <time>2022-09-03T13:00:59+02:00</time>
      </trkpt>
      <trkpt lat="43.40008" lon="3.66382">
        <ele>30</ele>
        <time>2022-09-03T13:01:37+02:00</time>
      </trkpt>
      <trkpt lat="43.39994" lon="3.66392">
        <ele>29</ele>
        <time>2022-09-03T13:02:09+02:00</time>
      </trkpt>
      <trkpt lat="43.39969" lon="3.66423">
        <ele>29</ele>
        <time>2022-09-03T13:02:29+02:00</time>
      </trkpt>
      <trkpt lat="43.39943" lon="3.66461">
        <ele>29</ele>
        <time>2022-09-03T13:02:48+02:00</time>
      </trkpt>
      <trkpt lat="43.39928" lon="3.66495">
        <ele>28</ele>
        <time>2022-09-03T13:03:07+02:00</time>
      </trkpt>
      <trkpt lat="43.39918" lon="3.66516">
        <ele>28</ele>
        <time>2022-09-03T13:03:27+02:00</time>
      </trkpt>
      <trkpt lat="43.3991" lon="3.66536">
        <ele>28</ele>
        <time>2022-09-03T13:03:48+02:00</time>
      </trkpt>
      <trkpt lat="43.39903" lon="3.66555">
        <ele>28</ele>
        <time>2022-09-03T13:04:07+02:00</time>
      </trkpt>
      <trkpt lat="43.39896" lon="3.66592">
        <ele>29</ele>
        <time>2022-09-03T13:04:26+02:00</time>
      </trkpt>
      <trkpt lat="43.39887" lon="3.66613">
        <ele>28</ele>
        <time>2022-09-03T13:04:48+02:00</time>
      </trkpt>
      <trkpt lat="43.39882" lon="3.66644">
        <ele>28</ele>
        <time>2022-09-03T13:05:06+02:00</time>
      </trkpt>
      <trkpt lat="43.39871" lon="3.66704">
        <ele>27</ele>
        <time>2022-09-03T13:05:44+02:00</time>
      </trkpt>
      <trkpt lat="43.39862" lon="3.6674">
        <ele>26</ele>
        <time>2022-09-03T13:06:06+02:00</time>
      </trkpt>
      <trkpt lat="43.3984" lon="3.66722">
        <ele>24</ele>
        <time>2022-09-03T13:06:34+02:00</time>
      </trkpt>
      <trkpt lat="43.39823" lon="3.667">
        <ele>22</ele>
        <time>2022-09-03T13:06:56+02:00</time>
      </trkpt>
      <trkpt lat="43.39809" lon="3.66674">
        <ele>19</ele>
        <time>2022-09-03T13:07:20+02:00</time>
      </trkpt>
      <trkpt lat="43.39795" lon="3.66649">
        <ele>17</ele>
        <time>2022-09-03T13:07:41+02:00</time>
      </trkpt>
      <trkpt lat="43.3978" lon="3.66626">
        <ele>15</ele>
        <time>2022-09-03T13:07:59+02:00</time>
      </trkpt>
      <trkpt lat="43.39763" lon="3.66606">
        <ele>13</ele>
        <time>2022-09-03T13:08:18+02:00</time>
      </trkpt>
      <trkpt lat="43.39742" lon="3.66595">
        <ele>11</ele>
        <time>2022-09-03T13:10:05+02:00</time>
      </trkpt>
      <trkpt lat="43.3972" lon="3.66586">
        <ele>10</ele>
        <time>2022-09-03T13:10:40+02:00</time>
      </trkpt>
      <trkpt lat="43.39698" lon="3.66575">
        <ele>9</ele>
        <time>2022-09-03T13:11:04+02:00</time>
      </trkpt>
      <trkpt lat="43.39678" lon="3.6656">
        <ele>8</ele>
        <time>2022-09-03T13:11:27+02:00</time>
      </trkpt>
      <trkpt lat="43.39659" lon="3.66543">
        <ele>6</ele>
        <time>2022-09-03T13:11:47+02:00</time>
      </trkpt>
      <trkpt lat="43.3964" lon="3.66526">
        <ele>5</ele>
        <time>2022-09-03T13:12:08+02:00</time>
      </trkpt>
      <trkpt lat="43.3962" lon="3.6651">
        <ele>4</ele>
        <time>2022-09-03T13:12:28+02:00</time>
      </trkpt>
      <trkpt lat="43.39602" lon="3.66491">
        <ele>4</ele>
        <time>2022-09-03T13:12:45+02:00</time>
      </trkpt>
      <trkpt lat="43.39581" lon="3.66475">
        <ele>3</ele>
        <time>2022-09-03T13:13:05+02:00</time>
      </trkpt>
      <trkpt lat="43.3956" lon="3.66461">
        <ele>3</ele>
        <time>2022-09-03T13:13:26+02:00</time>
      </trkpt>
      <trkpt lat="43.39542" lon="3.66442">
        <ele>2</ele>
        <time>2022-09-03T13:13:48+02:00</time>
      </trkpt>
      <trkpt lat="43.39508" lon="3.66405">
        <ele>1</ele>
        <time>2022-09-03T13:14:08+02:00</time>
      </trkpt>
      <trkpt lat="43.39486" lon="3.66423">
        <ele>1</ele>
        <time>2022-09-03T13:14:32+02:00</time>
      </trkpt>
      <trkpt lat="43.3947" lon="3.6644">
        <ele>2</ele>
        <time>2022-09-03T13:14:53+02:00</time>
      </trkpt>
      <trkpt lat="43.39449" lon="3.66457">
        <ele>2</ele>
        <time>2022-09-03T13:15:11+02:00</time>
      </trkpt>
      <trkpt lat="43.39417" lon="3.66483">
        <ele>2</ele>
        <time>2022-09-03T13:15:31+02:00</time>
      </trkpt>
      <trkpt lat="43.39403" lon="3.66495">
        <ele>2</ele>
        <time>2022-09-03T13:15:51+02:00</time>
      </trkpt>
      <trkpt lat="43.39389" lon="3.66518">
        <ele>2</ele>
        <time>2022-09-03T13:16:11+02:00</time>
      </trkpt>
      <trkpt lat="43.39395" lon="3.66549">
        <ele>2</ele>
        <time>2022-09-03T13:16:31+02:00</time>
      </trkpt>
      <trkpt lat="43.39387" lon="3.66579">
        <ele>2</ele>
        <time>2022-09-03T13:16:52+02:00</time>
      </trkpt>
      <trkpt lat="43.39392" lon="3.6661">
        <ele>2</ele>
        <time>2022-09-03T13:17:13+02:00</time>
      </trkpt>
      <trkpt lat="43.39397" lon="3.6664">
        <ele>2</ele>
        <time>2022-09-03T13:17:32+02:00</time>
      </trkpt>
      <trkpt lat="43.394" lon="3.66671">
        <ele>2</ele>
        <time>2022-09-03T13:17:52+02:00</time>
      </trkpt>
      <trkpt lat="43.39404" lon="3.66702">
        <ele>2</ele>
        <time>2022-09-03T13:18:14+02:00</time>
      </trkpt>
      <trkpt lat="43.39408" lon="3.66733">
        <ele>2</ele>
        <time>2022-09-03T13:18:32+02:00</time>
      </trkpt>
      <trkpt lat="43.39412" lon="3.66764">
        <ele>2</ele>
        <time>2022-09-03T13:18:50+02:00</time>
      </trkpt>
      <trkpt lat="43.39417" lon="3.66826">
        <ele>2</ele>
        <time>2022-09-03T13:19:30+02:00</time>
      </trkpt>
      <trkpt lat="43.39421" lon="3.66857">
        <ele>2</ele>
        <time>2022-09-03T13:19:49+02:00</time>
      </trkpt>
      <trkpt lat="43.39425" lon="3.66889">
        <ele>2</ele>
        <time>2022-09-03T13:20:11+02:00</time>
      </trkpt>
      <trkpt lat="43.39427" lon="3.66921">
        <ele>2</ele>
        <time>2022-09-03T13:20:34+02:00</time>
      </trkpt>
      <trkpt lat="43.39428" lon="3.66921">
        <ele>2</ele>
        <time>2022-09-03T13:21:37+02:00</time>
      </trkpt>
      <trkpt lat="43.39422" lon="3.66951">
        <ele>1</ele>
        <time>2022-09-03T13:22:39+02:00</time>
      </trkpt>
      <trkpt lat="43.39421" lon="3.67013">
        <ele>3</ele>
        <time>2022-09-03T13:23:17+02:00</time>
      </trkpt>
      <trkpt lat="43.39411" lon="3.67042">
        <ele>4</ele>
        <time>2022-09-03T13:23:35+02:00</time>
      </trkpt>
      <trkpt lat="43.39402" lon="3.67071">
        <ele>4</ele>
        <time>2022-09-03T13:23:53+02:00</time>
      </trkpt>
      <trkpt lat="43.39391" lon="3.671">
        <ele>4</ele>
        <time>2022-09-03T13:24:20+02:00</time>
      </trkpt>
      <trkpt lat="43.39384" lon="3.6713">
        <ele>5</ele>
        <time>2022-09-03T13:24:57+02:00</time>
      </trkpt>
      <trkpt lat="43.39362" lon="3.67185">
        <ele>5</ele>
        <time>2022-09-03T13:25:36+02:00</time>
      </trkpt>
      <trkpt lat="43.39348" lon="3.67209">
        <ele>5</ele>
        <time>2022-09-03T13:25:54+02:00</time>
      </trkpt>
      <trkpt lat="43.39332" lon="3.67233">
        <ele>5</ele>
        <time>2022-09-03T13:26:12+02:00</time>
      </trkpt>
      <trkpt lat="43.39319" lon="3.67263">
        <ele>5</ele>
        <time>2022-09-03T13:26:33+02:00</time>
      </trkpt>
      <trkpt lat="43.39303" lon="3.67295">
        <ele>5</ele>
        <time>2022-09-03T13:26:53+02:00</time>
      </trkpt>
      <trkpt lat="43.39287" lon="3.67304">
        <ele>5</ele>
        <time>2022-09-03T13:27:15+02:00</time>
      </trkpt>
      <trkpt lat="43.39276" lon="3.67332">
        <ele>5</ele>
        <time>2022-09-03T13:27:37+02:00</time>
      </trkpt>
      <trkpt lat="43.39255" lon="3.67347">
        <ele>5</ele>
        <time>2022-09-03T13:27:58+02:00</time>
      </trkpt>
      <trkpt lat="43.39234" lon="3.6736">
        <ele>5</ele>
        <time>2022-09-03T13:28:21+02:00</time>
      </trkpt>
      <trkpt lat="43.39212" lon="3.67366">
        <ele>5</ele>
        <time>2022-09-03T13:28:38+02:00</time>
      </trkpt>
      <trkpt lat="43.39189" lon="3.67364">
        <ele>5</ele>
        <time>2022-09-03T13:29:00+02:00</time>
      </trkpt>
      <trkpt lat="43.39167" lon="3.67355">
        <ele>5</ele>
        <time>2022-09-03T13:29:21+02:00</time>
      </trkpt>
      <trkpt lat="43.39132" lon="3.67343">
        <ele>3</ele>
        <time>2022-09-03T13:29:40+02:00</time>
      </trkpt>
      <trkpt lat="43.39124" lon="3.67364">
        <ele>4</ele>
        <time>2022-09-03T13:30:03+02:00</time>
      </trkpt>
      <trkpt lat="43.39121" lon="3.67396">
        <ele>4</ele>
        <time>2022-09-03T13:30:24+02:00</time>
      </trkpt>
      <trkpt lat="43.39121" lon="3.67427">
        <ele>4</ele>
        <time>2022-09-03T13:30:44+02:00</time>
      </trkpt>
      <trkpt lat="43.3912" lon="3.67458">
        <ele>4</ele>
        <time>2022-09-03T13:31:06+02:00</time>
      </trkpt>
      <trkpt lat="43.39128" lon="3.67488">
        <ele>4</ele>
        <time>2022-09-03T13:31:39+02:00</time>
      </trkpt>
      <trkpt lat="43.39127" lon="3.67551">
        <ele>5</ele>
        <time>2022-09-03T13:32:21+02:00</time>
      </trkpt>
      <trkpt lat="43.39128" lon="3.67582">
        <ele>5</ele>
        <time>2022-09-03T13:32:41+02:00</time>
      </trkpt>
      <trkpt lat="43.39127" lon="3.67613">
        <ele>5</ele>
        <time>2022-09-03T13:33:01+02:00</time>
      </trkpt>
      <trkpt lat="43.39132" lon="3.67644">
        <ele>5</ele>
        <time>2022-09-03T13:33:21+02:00</time>
      </trkpt>
      <trkpt lat="43.39134" lon="3.67675">
        <ele>5</ele>
        <time>2022-09-03T13:33:42+02:00</time>
      </trkpt>
      <trkpt lat="43.39142" lon="3.67706">
        <ele>5</ele>
        <time>2022-09-03T13:34:03+02:00</time>
      </trkpt>
      <trkpt lat="43.3915" lon="3.67736">
        <ele>5</ele>
        <time>2022-09-03T13:34:23+02:00</time>
      </trkpt>
      <trkpt lat="43.3916" lon="3.67765">
        <ele>4</ele>
        <time>2022-09-03T13:35:30+02:00</time>
      </trkpt>
      <trkpt lat="43.39182" lon="3.6777">
        <ele>5</ele>
        <time>2022-09-03T13:35:54+02:00</time>
      </trkpt>
      <trkpt lat="43.39199" lon="3.67792">
        <ele>4</ele>
        <time>2022-09-03T13:36:29+02:00</time>
      </trkpt>
      <trkpt lat="43.39215" lon="3.67815">
        <ele>4</ele>
        <time>2022-09-03T13:36:50+02:00</time>
      </trkpt>
      <trkpt lat="43.39231" lon="3.67837">
        <ele>5</ele>
        <time>2022-09-03T13:37:13+02:00</time>
      </trkpt>
      <trkpt lat="43.3925" lon="3.67856">
        <ele>6</ele>
        <time>2022-09-03T13:37:36+02:00</time>
      </trkpt>
      <trkpt lat="43.39264" lon="3.6788">
        <ele>6</ele>
        <time>2022-09-03T13:38:00+02:00</time>
      </trkpt>
      <trkpt lat="43.39287" lon="3.67885">
        <ele>10</ele>
        <time>2022-09-03T13:38:25+02:00</time>
      </trkpt>
      <trkpt lat="43.39314" lon="3.67886">
        <ele>13</ele>
        <time>2022-09-03T13:38:39+02:00</time>
      </trkpt>
      <trkpt lat="43.39322" lon="3.67915">
        <ele>13</ele>
        <time>2022-09-03T13:39:57+02:00</time>
      </trkpt>
      <trkpt lat="43.39329" lon="3.67945">
        <ele>13</ele>
        <time>2022-09-03T13:40:19+02:00</time>
      </trkpt>
      <trkpt lat="43.39343" lon="3.67968">
        <ele>13</ele>
        <time>2022-09-03T13:40:37+02:00</time>
      </trkpt>
      <trkpt lat="43.39346" lon="3.67992">
        <ele>14</ele>
        <time>2022-09-03T13:40:56+02:00</time>
      </trkpt>
      <trkpt lat="43.39373" lon="3.67986">
        <ele>17</ele>
        <time>2022-09-03T13:41:22+02:00</time>
      </trkpt>
      <trkpt lat="43.39367" lon="3.68008">
        <ele>16</ele>
      </trkpt>
      <trkpt lat="43.39366" lon="3.68046">
        <ele>16</ele>
        <time>2022-09-03T13:41:41+02:00</time>
      </trkpt>
      <trkpt lat="43.39364" lon="3.68081">
        <ele>14</ele>
        <time>2022-09-03T13:42:02+02:00</time>
      </trkpt>
      <trkpt lat="43.39367" lon="3.68109">
        <ele>15</ele>
        <time>2022-09-03T13:42:25+02:00</time>
      </trkpt>
      <trkpt lat="43.39366" lon="3.68141">
        <ele>14</ele>
        <time>2022-09-03T13:42:46+02:00</time>
      </trkpt>
      <trkpt lat="43.3937" lon="3.68172">
        <ele>14</ele>
        <time>2022-09-03T13:43:04+02:00</time>
      </trkpt>
      <trkpt lat="43.39366" lon="3.68203">
        <ele>11</ele>
        <time>2022-09-03T13:44:21+02:00</time>
      </trkpt>
      <trkpt lat="43.39364" lon="3.68234">
        <ele>8</ele>
        <time>2022-09-03T13:45:05+02:00</time>
      </trkpt>
      <trkpt lat="43.39361" lon="3.68265">
        <ele>7</ele>
        <time>2022-09-03T13:45:30+02:00</time>
      </trkpt>
      <trkpt lat="43.39358" lon="3.68296">
        <ele>7</ele>
        <time>2022-09-03T13:45:59+02:00</time>
      </trkpt>
      <trkpt lat="43.39351" lon="3.68326">
        <ele>7</ele>
        <time>2022-09-03T13:46:43+02:00</time>
      </trkpt>
      <trkpt lat="43.39342" lon="3.68355">
        <ele>8</ele>
        <time>2022-09-03T13:47:32+02:00</time>
      </trkpt>
      <trkpt lat="43.39311" lon="3.68399">
        <ele>8</ele>
        <time>2022-09-03T13:48:30+02:00</time>
      </trkpt>
      <trkpt lat="43.39294" lon="3.68419">
        <ele>8</ele>
        <time>2022-09-03T13:48:53+02:00</time>
      </trkpt>
      <trkpt lat="43.39276" lon="3.68439">
        <ele>9</ele>
        <time>2022-09-03T13:49:13+02:00</time>
      </trkpt>
      <trkpt lat="43.3926" lon="3.68476">
        <ele>7</ele>
        <time>2022-09-03T13:49:56+02:00</time>
      </trkpt>
      <trkpt lat="43.39262" lon="3.68498">
        <ele>7</ele>
        <time>2022-09-03T13:50:26+02:00</time>
      </trkpt>
      <trkpt lat="43.39272" lon="3.68527">
        <ele>8</ele>
        <time>2022-09-03T13:50:51+02:00</time>
      </trkpt>
      <trkpt lat="43.39272" lon="3.68558">
        <ele>9</ele>
        <time>2022-09-03T13:51:13+02:00</time>
      </trkpt>
      <trkpt lat="43.39262" lon="3.68587">
        <ele>9</ele>
        <time>2022-09-03T13:51:34+02:00</time>
      </trkpt>
      <trkpt lat="43.39257" lon="3.68619">
        <ele>10</ele>
        <time>2022-09-03T13:51:53+02:00</time>
      </trkpt>
      <trkpt lat="43.39258" lon="3.6865">
        <ele>9</ele>
        <time>2022-09-03T13:52:13+02:00</time>
      </trkpt>
      <trkpt lat="43.39257" lon="3.68681">
        <ele>8</ele>
        <time>2022-09-03T13:52:33+02:00</time>
      </trkpt>
      <trkpt lat="43.39259" lon="3.68713">
        <ele>9</ele>
        <time>2022-09-03T13:52:55+02:00</time>
      </trkpt>
      <trkpt lat="43.39255" lon="3.68745">
        <ele>9</ele>
        <time>2022-09-03T13:53:16+02:00</time>
      </trkpt>
      <trkpt lat="43.39253" lon="3.68776">
        <ele>9</ele>
        <time>2022-09-03T13:53:35+02:00</time>
      </trkpt>
      <trkpt lat="43.39252" lon="3.68809">
        <ele>10</ele>
        <time>2022-09-03T13:53:56+02:00</time>
      </trkpt>
      <trkpt lat="43.39249" lon="3.68841">
        <ele>10</ele>
        <time>2022-09-03T13:54:15+02:00</time>
      </trkpt>
      <trkpt lat="43.39246" lon="3.68873">
        <ele>9</ele>
        <time>2022-09-03T13:54:33+02:00</time>
      </trkpt>
      <trkpt lat="43.39245" lon="3.68904">
        <ele>9</ele>
        <time>2022-09-03T13:54:52+02:00</time>
      </trkpt>
      <trkpt lat="43.39242" lon="3.68937">
        <ele>9</ele>
        <time>2022-09-03T13:55:13+02:00</time>
      </trkpt>
      <trkpt lat="43.3924" lon="3.68969">
        <ele>8</ele>
        <time>2022-09-03T13:55:33+02:00</time>
      </trkpt>
      <trkpt lat="43.39239" lon="3.69">
        <ele>8</ele>
        <time>2022-09-03T13:55:53+02:00</time>
      </trkpt>
      <trkpt lat="43.39242" lon="3.69031">
        <ele>10</ele>
        <time>2022-09-03T13:56:13+02:00</time>
      </trkpt>
      <trkpt lat="43.39246" lon="3.69062">
        <ele>10</ele>
        <time>2022-09-03T13:56:38+02:00</time>
      </trkpt>
    </trkseg>
  </trk>
</gpx>